Who's Online

We have 7 guests online

Aviation WX

[source: ADDS]
METAR
KIAD 242052Z 33007KT 10SM FEW110 SCT220 17/M07 A3001 RMK AO2 SLP161 T01721072 56021 =
TAF
KIAD 242107Z 2421/2524 32006KT P6SM SCT250 FM242200 33004KT P6SM SCT250 FM250900 13004KT P6SM BKN100 FM251400 14009KT P6SM BKN110 FM251800 15012KT P6SM SHRA OVC035 FM252100 15011KT P6SM -SHRA OVC020 FM252300 12006KT P6SM -SHRA OVC020 =
SR / SS: 00:03 / 13:36 UTC (Washington-Dulles 2014-04-24)

JoomlaWatch Agent

Home Products and Services

This section describes Multilink Systems products and services

 

 

Under construction Please Standby